sensor_id;sensor_type;location;lat;lon;timestamp;P1;durP1;ratioP1;P2;durP2;ratioP2
12721;SDS011;6425;50.316;8.114;2024-02-28T00:00:00;67.2;;;27.3;;
12721;SDS011;6425;50.316;8.114;2024-02-28T00:03:00;67.2;;;27.3;;
12721;SDS011;6425;50.316;8.114;2024-02-28T00:06:00;69.1;;;28.8;;
12721;SDS011;6425;50.316;8.114;2024-02-28T00:09:00;70.3;;;28.4;;
12721;SDS011;6425;50.316;8.114;2024-02-28T00:12:00;70.3;;;28.4;;
12721;SDS011;6425;50.316;8.114;2024-02-28T00:15:00;62.6;;;26.9;;
12721;SDS011;6425;50.316;8.114;2024-02-28T00:18:00;62.6;;;26.9;;
12721;SDS011;6425;50.316;8.114;2024-02-28T00:21:00;69.1;;;28.4;;
12721;SDS011;6425;50.316;8.114;2024-02-28T00:24:00;70.3;;;28.9;;
12721;SDS011;6425;50.316;8.114;2024-02-28T00:27:00;70.3;;;28.9;;
12721;SDS011;6425;50.316;8.114;2024-02-28T00:30:00;72.9;;;30.2;;
12721;SDS011;6425;50.316;8.114;2024-02-28T00:33:00;68.3;;;28.8;;
12721;SDS011;6425;50.316;8.114;2024-02-28T00:36:00;63.8;;;27.4;;
12721;SDS011;6425;50.316;8.114;2024-02-28T00:39:00;67;;;27.7;;
12721;SDS011;6425;50.316;8.114;2024-02-28T00:42:00;67;;;27.7;;
12721;SDS011;6425;50.316;8.114;2024-02-28T00:45:00;62.9;;;27;;
12721;SDS011;6425;50.316;8.114;2024-02-28T00:48:00;75.8;;;31.3;;
12721;SDS011;6425;50.316;8.114;2024-02-28T00:51:00;75.8;;;31.3;;
12721;SDS011;6425;50.316;8.114;2024-02-28T00:54:00;72.9;;;29.5;;
12721;SDS011;6425;50.316;8.114;2024-02-28T00:57:00;72.9;;;29.5;;
12721;SDS011;6425;50.316;8.114;2024-02-28T01:00:00;77.7;;;31.2;;
12721;SDS011;6425;50.316;8.114;2024-02-28T01:03:00;76.2;;;31.8;;
12721;SDS011;6425;50.316;8.114;2024-02-28T01:06:00;76.2;;;31.8;;
12721;SDS011;6425;50.316;8.114;2024-02-28T01:09:00;74.4;;;31.2;;
12721;SDS011;6425;50.316;8.114;2024-02-28T01:12:00;74.4;;;31.2;;
12721;SDS011;6425;50.316;8.114;2024-02-28T01:15:00;87.4;;;34.7;;
12721;SDS011;6425;50.316;8.114;2024-02-28T01:18:00;86.1;;;32.9;;
12721;SDS011;6425;50.316;8.114;2024-02-28T01:21:01;86.1;;;32.9;;
12721;SDS011;6425;50.316;8.114;2024-02-28T01:24:00;106.9;;;36;;
12721;SDS011;6425;50.316;8.114;2024-02-28T01:27:00;106.9;;;36;;
12721;SDS011;6425;50.316;8.114;2024-02-28T01:30:00;106.3;;;36.5;;
12721;SDS011;6425;50.316;8.114;2024-02-28T01:33:01;136.7;;;38;;
12721;SDS011;6425;50.316;8.114;2024-02-28T01:36:01;136.7;;;38;;
12721;SDS011;6425;50.316;8.114;2024-02-28T01:39:00;156.8;;;38.8;;
12721;SDS011;6425;50.316;8.114;2024-02-28T01:42:00;156.8;;;38.8;;
12721;SDS011;6425;50.316;8.114;2024-02-28T01:45:01;159.7;;;40.7;;
12721;SDS011;6425;50.316;8.114;2024-02-28T01:48:00;152.9;;;40.9;;
12721;SDS011;6425;50.316;8.114;2024-02-28T01:51:00;152.9;;;40.9;;
12721;SDS011;6425;50.316;8.114;2024-02-28T01:54:00;144.2;;;40.2;;
12721;SDS011;6425;50.316;8.114;2024-02-28T01:57:00;144.2;;;40.2;;
12721;SDS011;6425;50.316;8.114;2024-02-28T02:00:00;292;;;46.9;;
12721;SDS011;6425;50.316;8.114;2024-02-28T02:03:00;279.3;;;46.5;;
12721;SDS011;6425;50.316;8.114;2024-02-28T02:06:00;279.3;;;46.5;;
12721;SDS011;6425;50.316;8.114;2024-02-28T02:09:02;395.3;;;49.6;;
12721;SDS011;6425;50.316;8.114;2024-02-28T02:12:00;395.3;;;49.6;;
12721;SDS011;6425;50.316;8.114;2024-02-28T02:15:00;217.1;;;42.8;;
12721;SDS011;6425;50.316;8.114;2024-02-28T02:18:00;218.5;;;43.3;;
12721;SDS011;6425;50.316;8.114;2024-02-28T02:21:02;218.5;;;43.3;;
12721;SDS011;6425;50.316;8.114;2024-02-28T02:24:00;252.6;;;44.3;;
12721;SDS011;6425;50.316;8.114;2024-02-28T02:27:00;252.6;;;44.3;;
12721;SDS011;6425;50.316;8.114;2024-02-28T02:30:00;214.3;;;41.4;;
12721;SDS011;6425;50.316;8.114;2024-02-28T02:33:01;195.1;;;42.4;;
12721;SDS011;6425;50.316;8.114;2024-02-28T02:36:00;195.1;;;42.4;;
12721;SDS011;6425;50.316;8.114;2024-02-28T02:39:00;182.3;;;42.1;;
12721;SDS011;6425;50.316;8.114;2024-02-28T02:42:00;182.3;;;42.1;;
12721;SDS011;6425;50.316;8.114;2024-02-28T02:45:00;424;;;53.6;;
12721;SDS011;6425;50.316;8.114;2024-02-28T02:48:00;237.7;;;45.1;;
12721;SDS011;6425;50.316;8.114;2024-02-28T02:51:00;237.7;;;45.1;;
12721;SDS011;6425;50.316;8.114;2024-02-28T02:54:00;263.1;;;45;;
12721;SDS011;6425;50.316;8.114;2024-02-28T02:57:00;263.1;;;45;;
12721;SDS011;6425;50.316;8.114;2024-02-28T03:00:00;217.7;;;42.7;;
12721;SDS011;6425;50.316;8.114;2024-02-28T03:03:00;298.1;;;47.4;;
12721;SDS011;6425;50.316;8.114;2024-02-28T03:06:00;298.1;;;47.4;;
12721;SDS011;6425;50.316;8.114;2024-02-28T03:09:00;239.7;;;46.2;;
12721;SDS011;6425;50.316;8.114;2024-02-28T03:12:00;264.1;;;46;;
12721;SDS011;6425;50.316;8.114;2024-02-28T03:15:00;272.3;;;46;;
12721;SDS011;6425;50.316;8.114;2024-02-28T03:18:00;243;;;43;;
12721;SDS011;6425;50.316;8.114;2024-02-28T03:21:00;243;;;43;;
12721;SDS011;6425;50.316;8.114;2024-02-28T03:24:00;275.9;;;45.2;;
12721;SDS011;6425;50.316;8.114;2024-02-28T03:27:00;265.1;;;45.1;;
12721;SDS011;6425;50.316;8.114;2024-02-28T03:30:00;265.1;;;45.1;;
12721;SDS011;6425;50.316;8.114;2024-02-28T03:33:00;227.3;;;41.8;;
12721;SDS011;6425;50.316;8.114;2024-02-28T03:36:00;227.3;;;41.8;;
12721;SDS011;6425;50.316;8.114;2024-02-28T03:39:00;207;;;42.5;;
12721;SDS011;6425;50.316;8.114;2024-02-28T03:42:00;223.2;;;42;;
12721;SDS011;6425;50.316;8.114;2024-02-28T03:45:00;223.2;;;42;;
12721;SDS011;6425;50.316;8.114;2024-02-28T03:48:00;267.9;;;45.3;;
12721;SDS011;6425;50.316;8.114;2024-02-28T03:51:00;267.9;;;45.3;;
12721;SDS011;6425;50.316;8.114;2024-02-28T03:54:01;247.1;;;44.2;;
12721;SDS011;6425;50.316;8.114;2024-02-28T03:57:00;205.2;;;40.8;;
12721;SDS011;6425;50.316;8.114;2024-02-28T04:00:00;205.2;;;40.8;;
12721;SDS011;6425;50.316;8.114;2024-02-28T04:03:00;192;;;40.8;;
12721;SDS011;6425;50.316;8.114;2024-02-28T04:06:00;192;;;40.8;;
12721;SDS011;6425;50.316;8.114;2024-02-28T04:09:00;172.8;;;37.1;;
12721;SDS011;6425;50.316;8.114;2024-02-28T04:12:00;166.6;;;37;;
12721;SDS011;6425;50.316;8.114;2024-02-28T04:15:00;166.6;;;37;;
12721;SDS011;6425;50.316;8.114;2024-02-28T04:18:00;175.6;;;37.5;;
12721;SDS011;6425;50.316;8.114;2024-02-28T04:21:00;175.6;;;37.5;;
12721;SDS011;6425;50.316;8.114;2024-02-28T04:24:00;178.4;;;39.7;;
12721;SDS011;6425;50.316;8.114;2024-02-28T04:27:00;168.8;;;37.4;;
12721;SDS011;6425;50.316;8.114;2024-02-28T04:30:00;168.8;;;37.4;;
12721;SDS011;6425;50.316;8.114;2024-02-28T04:33:00;155.1;;;37.4;;
12721;SDS011;6425;50.316;8.114;2024-02-28T04:36:00;155.1;;;37.4;;
12721;SDS011;6425;50.316;8.114;2024-02-28T04:39:00;170.4;;;39.7;;
12721;SDS011;6425;50.316;8.114;2024-02-28T04:42:02;156.5;;;36;;
12721;SDS011;6425;50.316;8.114;2024-02-28T04:45:00;156.5;;;36;;
12721;SDS011;6425;50.316;8.114;2024-02-28T04:48:00;148.8;;;35.4;;
12721;SDS011;6425;50.316;8.114;2024-02-28T04:51:00;148.8;;;35.4;;
12721;SDS011;6425;50.316;8.114;2024-02-28T04:54:00;148.3;;;35.3;;
12721;SDS011;6425;50.316;8.114;2024-02-28T04:57:00;138.2;;;32.2;;
12721;SDS011;6425;50.316;8.114;2024-02-28T05:00:00;138.2;;;32.2;;
12721;SDS011;6425;50.316;8.114;2024-02-28T05:03:00;149;;;36.1;;
12721;SDS011;6425;50.316;8.114;2024-02-28T05:06:00;149;;;36.1;;
12721;SDS011;6425;50.316;8.114;2024-02-28T05:09:00;144.6;;;33.6;;
12721;SDS011;6425;50.316;8.114;2024-02-28T05:12:00;147.3;;;35;;
12721;SDS011;6425;50.316;8.114;2024-02-28T05:15:00;147.3;;;35;;
12721;SDS011;6425;50.316;8.114;2024-02-28T05:18:00;150.8;;;35.3;;
12721;SDS011;6425;50.316;8.114;2024-02-28T05:21:00;150.8;;;35.3;;
12721;SDS011;6425;50.316;8.114;2024-02-28T05:24:01;144.6;;;35.3;;
12721;SDS011;6425;50.316;8.114;2024-02-28T05:27:00;148.4;;;34.2;;
12721;SDS011;6425;50.316;8.114;2024-02-28T05:30:00;148.4;;;34.2;;
12721;SDS011;6425;50.316;8.114;2024-02-28T05:33:00;147.9;;;32.9;;
12721;SDS011;6425;50.316;8.114;2024-02-28T05:36:00;147.9;;;32.9;;
12721;SDS011;6425;50.316;8.114;2024-02-28T05:39:00;146.9;;;34.2;;
12721;SDS011;6425;50.316;8.114;2024-02-28T05:42:00;157.5;;;36.2;;
12721;SDS011;6425;50.316;8.114;2024-02-28T05:45:00;157.5;;;36.2;;
12721;SDS011;6425;50.316;8.114;2024-02-28T05:48:00;162.2;;;36.3;;
12721;SDS011;6425;50.316;8.114;2024-02-28T05:51:00;146.9;;;35.2;;
12721;SDS011;6425;50.316;8.114;2024-02-28T05:54:00;146.9;;;35.2;;
12721;SDS011;6425;50.316;8.114;2024-02-28T05:57:00;136.9;;;33.6;;
12721;SDS011;6425;50.316;8.114;2024-02-28T06:00:00;136.9;;;33.6;;
12721;SDS011;6425;50.316;8.114;2024-02-28T06:03:00;144.1;;;34.7;;
12721;SDS011;6425;50.316;8.114;2024-02-28T06:06:00;136.1;;;33;;
12721;SDS011;6425;50.316;8.114;2024-02-28T06:09:00;136.1;;;33;;
12721;SDS011;6425;50.316;8.114;2024-02-28T06:12:00;143.6;;;35.3;;
12721;SDS011;6425;50.316;8.114;2024-02-28T06:15:00;143.6;;;35.3;;
12721;SDS011;6425;50.316;8.114;2024-02-28T06:18:00;128.2;;;32.7;;
12721;SDS011;6425;50.316;8.114;2024-02-28T06:21:00;139;;;38.8;;
12721;SDS011;6425;50.316;8.114;2024-02-28T06:24:00;139;;;38.8;;
12721;SDS011;6425;50.316;8.114;2024-02-28T06:27:00;116.2;;;33.1;;
12721;SDS011;6425;50.316;8.114;2024-02-28T06:30:00;116.2;;;33.1;;
12721;SDS011;6425;50.316;8.114;2024-02-28T06:33:00;125.1;;;34.3;;
12721;SDS011;6425;50.316;8.114;2024-02-28T06:36:00;124.2;;;34.1;;
12721;SDS011;6425;50.316;8.114;2024-02-28T06:39:00;124.2;;;34.1;;
12721;SDS011;6425;50.316;8.114;2024-02-28T06:42:00;119.3;;;32.7;;
12721;SDS011;6425;50.316;8.114;2024-02-28T06:45:00;119.3;;;32.7;;
12721;SDS011;6425;50.316;8.114;2024-02-28T06:48:00;115.5;;;33.9;;
12721;SDS011;6425;50.316;8.114;2024-02-28T06:51:00;118.3;;;32.7;;
12721;SDS011;6425;50.316;8.114;2024-02-28T06:54:00;118.3;;;32.7;;
12721;SDS011;6425;50.316;8.114;2024-02-28T06:57:00;109.2;;;32.7;;
12721;SDS011;6425;50.316;8.114;2024-02-28T07:00:00;109.2;;;32.7;;
12721;SDS011;6425;50.316;8.114;2024-02-28T07:03:00;111.9;;;31.7;;
12721;SDS011;6425;50.316;8.114;2024-02-28T07:06:00;108.7;;;31.9;;
12721;SDS011;6425;50.316;8.114;2024-02-28T07:09:00;108.7;;;31.9;;
12721;SDS011;6425;50.316;8.114;2024-02-28T07:12:00;107.4;;;31.9;;
12721;SDS011;6425;50.316;8.114;2024-02-28T07:15:00;107.4;;;31.9;;
12721;SDS011;6425;50.316;8.114;2024-02-28T07:18:00;109.4;;;31.5;;
12721;SDS011;6425;50.316;8.114;2024-02-28T07:21:00;85.8;;;25.8;;
12721;SDS011;6425;50.316;8.114;2024-02-28T07:24:00;85.8;;;25.8;;
12721;SDS011;6425;50.316;8.114;2024-02-28T07:27:00;91.8;;;27.6;;
12721;SDS011;6425;50.316;8.114;2024-02-28T07:30:00;91.8;;;27.6;;
12721;SDS011;6425;50.316;8.114;2024-02-28T07:33:00;85.9;;;28.5;;
12721;SDS011;6425;50.316;8.114;2024-02-28T07:36:00;87.8;;;29.8;;
12721;SDS011;6425;50.316;8.114;2024-02-28T07:39:00;87.8;;;29.8;;
12721;SDS011;6425;50.316;8.114;2024-02-28T07:42:00;86.9;;;29.4;;
12721;SDS011;6425;50.316;8.114;2024-02-28T07:45:00;86.9;;;29.4;;
12721;SDS011;6425;50.316;8.114;2024-02-28T07:48:00;87.4;;;29.1;;
12721;SDS011;6425;50.316;8.114;2024-02-28T07:51:00;76.9;;;27;;
12721;SDS011;6425;50.316;8.114;2024-02-28T07:54:00;76.9;;;27;;
12721;SDS011;6425;50.316;8.114;2024-02-28T07:57:00;83.3;;;28.5;;
12721;SDS011;6425;50.316;8.114;2024-02-28T08:00:00;83.3;;;28.5;;
12721;SDS011;6425;50.316;8.114;2024-02-28T08:03:00;81.5;;;29.3;;
12721;SDS011;6425;50.316;8.114;2024-02-28T08:06:00;83.4;;;27.3;;
12721;SDS011;6425;50.316;8.114;2024-02-28T08:09:00;83.4;;;27.3;;
12721;SDS011;6425;50.316;8.114;2024-02-28T08:12:01;77;;;26.5;;
12721;SDS011;6425;50.316;8.114;2024-02-28T08:15:00;77;;;26.5;;
12721;SDS011;6425;50.316;8.114;2024-02-28T08:18:00;82.8;;;26.6;;
12721;SDS011;6425;50.316;8.114;2024-02-28T08:21:00;79.7;;;27.2;;
12721;SDS011;6425;50.316;8.114;2024-02-28T08:24:00;79.7;;;27.2;;
12721;SDS011;6425;50.316;8.114;2024-02-28T08:27:00;78.4;;;26.2;;
12721;SDS011;6425;50.316;8.114;2024-02-28T08:30:00;78;;;26.1;;
12721;SDS011;6425;50.316;8.114;2024-02-28T08:33:00;78;;;26.1;;
12721;SDS011;6425;50.316;8.114;2024-02-28T08:36:00;78.7;;;27.6;;
12721;SDS011;6425;50.316;8.114;2024-02-28T08:39:00;78.7;;;27.6;;
12721;SDS011;6425;50.316;8.114;2024-02-28T08:42:00;83.8;;;27.6;;
12721;SDS011;6425;50.316;8.114;2024-02-28T08:45:00;81.1;;;28.5;;
12721;SDS011;6425;50.316;8.114;2024-02-28T08:48:02;81.1;;;28.5;;
12721;SDS011;6425;50.316;8.114;2024-02-28T08:51:00;78.3;;;25.3;;
12721;SDS011;6425;50.316;8.114;2024-02-28T08:54:00;78.3;;;25.3;;
12721;SDS011;6425;50.316;8.114;2024-02-28T08:57:00;74;;;26.5;;
12721;SDS011;6425;50.316;8.114;2024-02-28T09:00:00;71.3;;;25.7;;
12721;SDS011;6425;50.316;8.114;2024-02-28T09:03:00;71.3;;;25.7;;
12721;SDS011;6425;50.316;8.114;2024-02-28T09:06:00;68.5;;;26.3;;
12721;SDS011;6425;50.316;8.114;2024-02-28T09:09:00;68.5;;;26.3;;
12721;SDS011;6425;50.316;8.114;2024-02-28T09:12:00;63.1;;;24.8;;
12721;SDS011;6425;50.316;8.114;2024-02-28T09:15:00;66.9;;;25.7;;
12721;SDS011;6425;50.316;8.114;2024-02-28T09:18:00;66.9;;;25.7;;
12721;SDS011;6425;50.316;8.114;2024-02-28T09:21:00;67.2;;;25.1;;
12721;SDS011;6425;50.316;8.114;2024-02-28T09:24:00;67.2;;;25.1;;
12721;SDS011;6425;50.316;8.114;2024-02-28T09:27:00;69.1;;;26.1;;
12721;SDS011;6425;50.316;8.114;2024-02-28T09:30:00;68;;;26.6;;
12721;SDS011;6425;50.316;8.114;2024-02-28T09:33:01;68;;;26.6;;
12721;SDS011;6425;50.316;8.114;2024-02-28T09:36:01;69.9;;;25.6;;
12721;SDS011;6425;50.316;8.114;2024-02-28T09:39:00;69.9;;;25.6;;
12721;SDS011;6425;50.316;8.114;2024-02-28T09:42:00;71.7;;;25.8;;
12721;SDS011;6425;50.316;8.114;2024-02-28T09:45:00;62.9;;;24.6;;
12721;SDS011;6425;50.316;8.114;2024-02-28T09:48:00;62.9;;;24.6;;
12721;SDS011;6425;50.316;8.114;2024-02-28T09:51:00;63.6;;;25.5;;
12721;SDS011;6425;50.316;8.114;2024-02-28T09:54:00;63.6;;;25.5;;
12721;SDS011;6425;50.316;8.114;2024-02-28T09:57:02;61.3;;;24.8;;
12721;SDS011;6425;50.316;8.114;2024-02-28T10:00:00;61.7;;;25.5;;
12721;SDS011;6425;50.316;8.114;2024-02-28T10:03:00;61.7;;;25.5;;
12721;SDS011;6425;50.316;8.114;2024-02-28T10:06:00;60.3;;;24.3;;
12721;SDS011;6425;50.316;8.114;2024-02-28T10:09:00;60.3;;;24.3;;
12721;SDS011;6425;50.316;8.114;2024-02-28T10:12:02;63;;;25.4;;
12721;SDS011;6425;50.316;8.114;2024-02-28T10:15:00;60;;;24.3;;
12721;SDS011;6425;50.316;8.114;2024-02-28T10:18:00;60;;;24.3;;
12721;SDS011;6425;50.316;8.114;2024-02-28T10:21:00;60.5;;;24.1;;
12721;SDS011;6425;50.316;8.114;2024-02-28T10:24:00;60.5;;;24.1;;
12721;SDS011;6425;50.316;8.114;2024-02-28T10:27:01;63.6;;;26;;
12721;SDS011;6425;50.316;8.114;2024-02-28T10:30:00;60.2;;;24.8;;
12721;SDS011;6425;50.316;8.114;2024-02-28T10:33:00;60.2;;;24.8;;
12721;SDS011;6425;50.316;8.114;2024-02-28T10:36:00;59;;;24.8;;
12721;SDS011;6425;50.316;8.114;2024-02-28T10:39:00;59;;;24.8;;
12721;SDS011;6425;50.316;8.114;2024-02-28T10:42:00;60.7;;;25;;
12721;SDS011;6425;50.316;8.114;2024-02-28T10:45:01;58.5;;;24.8;;
12721;SDS011;6425;50.316;8.114;2024-02-28T10:48:00;58.5;;;24.8;;
12721;SDS011;6425;50.316;8.114;2024-02-28T10:51:00;61.4;;;24.6;;
12721;SDS011;6425;50.316;8.114;2024-02-28T10:54:02;61.4;;;24.6;;
12721;SDS011;6425;50.316;8.114;2024-02-28T10:57:02;56.4;;;24.2;;
12721;SDS011;6425;50.316;8.114;2024-02-28T11:00:00;55.6;;;23.8;;
12721;SDS011;6425;50.316;8.114;2024-02-28T11:03:00;55.6;;;23.8;;
12721;SDS011;6425;50.316;8.114;2024-02-28T11:06:00;58.8;;;25.5;;
12721;SDS011;6425;50.316;8.114;2024-02-28T11:09:00;56.8;;;24;;
12721;SDS011;6425;50.316;8.114;2024-02-28T11:12:00;56.2;;;23.5;;
12721;SDS011;6425;50.316;8.114;2024-02-28T11:15:00;54.9;;;24.2;;
12721;SDS011;6425;50.316;8.114;2024-02-28T11:18:06;54.9;;;24.2;;
12721;SDS011;6425;50.316;8.114;2024-02-28T11:21:01;50.3;;;22.4;;
12721;SDS011;6425;50.316;8.114;2024-02-28T11:24:00;52.9;;;24.1;;
12721;SDS011;6425;50.316;8.114;2024-02-28T11:27:00;52.9;;;24.1;;
12721;SDS011;6425;50.316;8.114;2024-02-28T11:30:00;49.7;;;22.6;;
12721;SDS011;6425;50.316;8.114;2024-02-28T11:33:01;49.7;;;22.6;;
12721;SDS011;6425;50.316;8.114;2024-02-28T11:36:00;49.6;;;23.1;;
12721;SDS011;6425;50.316;8.114;2024-02-28T11:39:00;49.7;;;23.5;;
12721;SDS011;6425;50.316;8.114;2024-02-28T11:42:15;49.7;;;23.5;;
12721;SDS011;6425;50.316;8.114;2024-02-28T11:45:00;55.2;;;24.2;;
12721;SDS011;6425;50.316;8.114;2024-02-28T11:48:00;55.2;;;24.2;;
12721;SDS011;6425;50.316;8.114;2024-02-28T11:51:00;52.6;;;23.2;;
12721;SDS011;6425;50.316;8.114;2024-02-28T11:54:01;50.6;;;23;;
12721;SDS011;6425;50.316;8.114;2024-02-28T11:57:01;50.6;;;23;;
12721;SDS011;6425;50.316;8.114;2024-02-28T12:00:02;48.3;;;22.6;;
12721;SDS011;6425;50.316;8.114;2024-02-28T12:03:04;48.3;;;22.6;;
12721;SDS011;6425;50.316;8.114;2024-02-28T12:06:00;49.5;;;22.7;;
12721;SDS011;6425;50.316;8.114;2024-02-28T12:09:02;47.6;;;22.4;;
12721;SDS011;6425;50.316;8.114;2024-02-28T12:12:00;47.6;;;22.4;;
12721;SDS011;6425;50.316;8.114;2024-02-28T12:15:00;48.8;;;23.5;;
12721;SDS011;6425;50.316;8.114;2024-02-28T12:18:00;48.8;;;23.5;;
12721;SDS011;6425;50.316;8.114;2024-02-28T12:21:00;49.1;;;22.8;;
12721;SDS011;6425;50.316;8.114;2024-02-28T12:24:00;47.3;;;24.2;;
12721;SDS011;6425;50.316;8.114;2024-02-28T12:27:00;47.3;;;24.2;;
12721;SDS011;6425;50.316;8.114;2024-02-28T12:30:00;46.7;;;23.3;;
12721;SDS011;6425;50.316;8.114;2024-02-28T12:33:00;46.7;;;23.3;;
12721;SDS011;6425;50.316;8.114;2024-02-28T12:36:00;49.8;;;25.1;;
12721;SDS011;6425;50.316;8.114;2024-02-28T12:39:00;43.3;;;24.3;;
12721;SDS011;6425;50.316;8.114;2024-02-28T12:42:00;43.3;;;24.3;;
12721;SDS011;6425;50.316;8.114;2024-02-28T12:45:01;45.8;;;24.8;;
12721;SDS011;6425;50.316;8.114;2024-02-28T12:48:00;45.8;;;24.8;;
12721;SDS011;6425;50.316;8.114;2024-02-28T12:51:00;44.8;;;23.8;;
12721;SDS011;6425;50.316;8.114;2024-02-28T12:54:00;44.9;;;25.9;;
12721;SDS011;6425;50.316;8.114;2024-02-28T12:57:00;44.9;;;25.9;;
12721;SDS011;6425;50.316;8.114;2024-02-28T13:00:00;48.1;;;24.6;;
12721;SDS011;6425;50.316;8.114;2024-02-28T13:03:00;48.1;;;24.6;;
12721;SDS011;6425;50.316;8.114;2024-02-28T13:06:00;47.6;;;22.7;;
12721;SDS011;6425;50.316;8.114;2024-02-28T13:09:00;42.9;;;22.8;;
12721;SDS011;6425;50.316;8.114;2024-02-28T13:12:00;42.9;;;22.8;;
12721;SDS011;6425;50.316;8.114;2024-02-28T13:15:00;43.5;;;23.2;;
12721;SDS011;6425;50.316;8.114;2024-02-28T13:18:00;43.5;;;23.2;;
12721;SDS011;6425;50.316;8.114;2024-02-28T13:21:00;42.6;;;23.5;;
12721;SDS011;6425;50.316;8.114;2024-02-28T13:24:00;43;;;22.8;;
12721;SDS011;6425;50.316;8.114;2024-02-28T13:27:00;43;;;22.8;;
12721;SDS011;6425;50.316;8.114;2024-02-28T13:30:00;43.7;;;23.6;;
12721;SDS011;6425;50.316;8.114;2024-02-28T13:33:02;43.7;;;23.6;;
12721;SDS011;6425;50.316;8.114;2024-02-28T13:36:00;46.1;;;24.8;;
12721;SDS011;6425;50.316;8.114;2024-02-28T13:39:00;44.4;;;25.8;;
12721;SDS011;6425;50.316;8.114;2024-02-28T13:42:00;44.4;;;25.8;;
12721;SDS011;6425;50.316;8.114;2024-02-28T13:45:00;45.1;;;25.5;;
12721;SDS011;6425;50.316;8.114;2024-02-28T13:48:00;45.1;;;25.5;;
12721;SDS011;6425;50.316;8.114;2024-02-28T13:51:00;40.4;;;23;;
12721;SDS011;6425;50.316;8.114;2024-02-28T13:54:00;41.1;;;24;;
12721;SDS011;6425;50.316;8.114;2024-02-28T13:57:00;41.1;;;24;;
12721;SDS011;6425;50.316;8.114;2024-02-28T14:00:00;44.8;;;25.5;;
12721;SDS011;6425;50.316;8.114;2024-02-28T14:03:00;44.8;;;25.5;;
12721;SDS011;6425;50.316;8.114;2024-02-28T14:06:00;44.5;;;25.4;;
12721;SDS011;6425;50.316;8.114;2024-02-28T14:09:00;44.1;;;24;;
12721;SDS011;6425;50.316;8.114;2024-02-28T14:12:00;44.1;;;24;;
12721;SDS011;6425;50.316;8.114;2024-02-28T14:15:00;35.9;;;21.9;;
12721;SDS011;6425;50.316;8.114;2024-02-28T14:18:00;39.4;;;23;;
12721;SDS011;6425;50.316;8.114;2024-02-28T14:21:01;43;;;24.2;;
12721;SDS011;6425;50.316;8.114;2024-02-28T14:24:00;35.9;;;23;;
12721;SDS011;6425;50.316;8.114;2024-02-28T14:27:00;35.9;;;23;;
12721;SDS011;6425;50.316;8.114;2024-02-28T14:30:00;36.9;;;23.8;;
12721;SDS011;6425;50.316;8.114;2024-02-28T14:33:00;34.8;;;23.4;;
12721;SDS011;6425;50.316;8.114;2024-02-28T14:36:00;34.8;;;23.4;;
12721;SDS011;6425;50.316;8.114;2024-02-28T14:39:00;37.7;;;24.9;;
12721;SDS011;6425;50.316;8.114;2024-02-28T14:42:00;37.7;;;24.9;;
12721;SDS011;6425;50.316;8.114;2024-02-28T14:45:00;35.8;;;23.9;;
12721;SDS011;6425;50.316;8.114;2024-02-28T14:48:00;36.7;;;24;;
12721;SDS011;6425;50.316;8.114;2024-02-28T14:51:00;36.7;;;24;;
12721;SDS011;6425;50.316;8.114;2024-02-28T14:54:00;36.2;;;23.3;;
12721;SDS011;6425;50.316;8.114;2024-02-28T14:57:00;36.2;;;23.3;;
12721;SDS011;6425;50.316;8.114;2024-02-28T15:00:00;33.6;;;22;;
12721;SDS011;6425;50.316;8.114;2024-02-28T15:03:00;42.6;;;25.5;;
12721;SDS011;6425;50.316;8.114;2024-02-28T15:06:00;42.6;;;25.5;;
12721;SDS011;6425;50.316;8.114;2024-02-28T15:09:00;39.6;;;23.1;;
12721;SDS011;6425;50.316;8.114;2024-02-28T15:12:00;39.6;;;23.1;;
12721;SDS011;6425;50.316;8.114;2024-02-28T15:15:00;32.5;;;20.7;;
12721;SDS011;6425;50.316;8.114;2024-02-28T15:18:00;30.4;;;20.3;;
12721;SDS011;6425;50.316;8.114;2024-02-28T15:21:00;30.4;;;20.3;;
12721;SDS011;6425;50.316;8.114;2024-02-28T15:24:00;30.9;;;18.5;;
12721;SDS011;6425;50.316;8.114;2024-02-28T15:27:00;30.9;;;18.5;;
12721;SDS011;6425;50.316;8.114;2024-02-28T15:30:00;26;;;18.1;;
12721;SDS011;6425;50.316;8.114;2024-02-28T15:33:00;30.1;;;19.2;;
12721;SDS011;6425;50.316;8.114;2024-02-28T15:36:00;30.1;;;19.2;;
12721;SDS011;6425;50.316;8.114;2024-02-28T15:39:00;29.1;;;18.8;;
12721;SDS011;6425;50.316;8.114;2024-02-28T15:42:00;29.1;;;18.8;;
12721;SDS011;6425;50.316;8.114;2024-02-28T15:45:00;30.6;;;19.5;;
12721;SDS011;6425;50.316;8.114;2024-02-28T15:48:00;31.8;;;20.4;;
12721;SDS011;6425;50.316;8.114;2024-02-28T15:51:00;31.8;;;20.4;;
12721;SDS011;6425;50.316;8.114;2024-02-28T15:54:00;32.5;;;19.6;;
12721;SDS011;6425;50.316;8.114;2024-02-28T15:57:00;32.5;;;19.6;;
12721;SDS011;6425;50.316;8.114;2024-02-28T16:00:00;33.2;;;19.6;;
12721;SDS011;6425;50.316;8.114;2024-02-28T16:03:00;32.7;;;19.1;;
12721;SDS011;6425;50.316;8.114;2024-02-28T16:06:00;32.7;;;19.1;;
12721;SDS011;6425;50.316;8.114;2024-02-28T16:09:02;34;;;18.9;;
12721;SDS011;6425;50.316;8.114;2024-02-28T16:12:00;34;;;18.9;;
12721;SDS011;6425;50.316;8.114;2024-02-28T16:15:00;37;;;21.3;;
12721;SDS011;6425;50.316;8.114;2024-02-28T16:18:00;37;;;22.3;;
12721;SDS011;6425;50.316;8.114;2024-02-28T16:21:00;37;;;22.3;;
12721;SDS011;6425;50.316;8.114;2024-02-28T16:24:00;38.6;;;20.8;;
12721;SDS011;6425;50.316;8.114;2024-02-28T16:27:00;38.6;;;20.8;;
12721;SDS011;6425;50.316;8.114;2024-02-28T16:30:00;32.3;;;19.5;;
12721;SDS011;6425;50.316;8.114;2024-02-28T16:33:00;42.7;;;22.1;;
12721;SDS011;6425;50.316;8.114;2024-02-28T16:36:00;42.7;;;22.1;;
12721;SDS011;6425;50.316;8.114;2024-02-28T16:39:00;37.5;;;20.6;;
12721;SDS011;6425;50.316;8.114;2024-02-28T16:42:00;37.5;;;20.6;;
12721;SDS011;6425;50.316;8.114;2024-02-28T16:45:01;34.8;;;20.8;;
12721;SDS011;6425;50.316;8.114;2024-02-28T16:48:00;39.3;;;20.4;;
12721;SDS011;6425;50.316;8.114;2024-02-28T16:51:00;39.3;;;20.4;;
12721;SDS011;6425;50.316;8.114;2024-02-28T16:54:00;47.3;;;27.1;;
12721;SDS011;6425;50.316;8.114;2024-02-28T16:57:01;47.3;;;27.1;;
12721;SDS011;6425;50.316;8.114;2024-02-28T17:00:00;39.1;;;21.6;;
12721;SDS011;6425;50.316;8.114;2024-02-28T17:03:00;43.1;;;22.4;;
12721;SDS011;6425;50.316;8.114;2024-02-28T17:06:00;43.1;;;22.4;;
12721;SDS011;6425;50.316;8.114;2024-02-28T17:09:00;45.5;;;22.4;;
12721;SDS011;6425;50.316;8.114;2024-02-28T17:12:00;45.5;;;22.4;;
12721;SDS011;6425;50.316;8.114;2024-02-28T17:15:00;53.3;;;25.6;;
12721;SDS011;6425;50.316;8.114;2024-02-28T17:18:00;57;;;26.5;;
12721;SDS011;6425;50.316;8.114;2024-02-28T17:21:00;57;;;26.5;;
12721;SDS011;6425;50.316;8.114;2024-02-28T17:24:00;51.7;;;24.4;;
12721;SDS011;6425;50.316;8.114;2024-02-28T17:27:00;51.7;;;24.4;;
12721;SDS011;6425;50.316;8.114;2024-02-28T17:30:00;42.7;;;20.5;;
12721;SDS011;6425;50.316;8.114;2024-02-28T17:33:00;44.7;;;19.8;;
12721;SDS011;6425;50.316;8.114;2024-02-28T17:36:00;44.7;;;19.8;;
12721;SDS011;6425;50.316;8.114;2024-02-28T17:39:00;43.7;;;22;;
12721;SDS011;6425;50.316;8.114;2024-02-28T17:42:00;43.7;;;22;;
12721;SDS011;6425;50.316;8.114;2024-02-28T17:45:00;44.7;;;22.2;;
12721;SDS011;6425;50.316;8.114;2024-02-28T17:48:00;38.9;;;18.4;;
12721;SDS011;6425;50.316;8.114;2024-02-28T17:51:00;38.9;;;18.4;;
12721;SDS011;6425;50.316;8.114;2024-02-28T17:54:00;49.1;;;22.7;;
12721;SDS011;6425;50.316;8.114;2024-02-28T17:57:01;53.9;;;26.7;;
12721;SDS011;6425;50.316;8.114;2024-02-28T18:00:00;53.9;;;26.7;;
12721;SDS011;6425;50.316;8.114;2024-02-28T18:03:00;61;;;29.5;;
12721;SDS011;6425;50.316;8.114;2024-02-28T18:06:00;61;;;29.5;;
12721;SDS011;6425;50.316;8.114;2024-02-28T18:09:00;63.1;;;33.9;;
12721;SDS011;6425;50.316;8.114;2024-02-28T18:12:00;37.6;;;16.8;;
12721;SDS011;6425;50.316;8.114;2024-02-28T18:15:00;37.6;;;16.8;;
12721;SDS011;6425;50.316;8.114;2024-02-28T18:18:00;29.8;;;16.7;;
12721;SDS011;6425;50.316;8.114;2024-02-28T18:21:01;29.8;;;16.7;;